Time;durP1;ratioP1;P1;durP2;ratioP2;P2;SDS_P1;SDS_P2;PMS_P1;PMS_P2;Temp;Humidity;BMP_temperature;BMP_pressure;BME280_temperature;BME280_humidity;BME280_pressure;Samples;Min_cycle;Max_cycle;Signal;HPM_P1;HPM_P2
2022/08/05 00:02:25;;;;;;;6.97;3.28;;;18.40;99.90;;;;;;7344422;32;20126;-62
2022/08/05 00:06:29;;;;;;;6.03;3.28;;;18.40;99.90;;;;;;7343340;32;20446;-62
2022/08/05 00:10:36;;;;;;;6.53;2.78;;;18.20;99.90;;;;;;7335098;32;20242;-62
2022/08/05 00:14:38;;;;;;;5.43;3.20;;;18.20;99.90;;;;;;7344801;32;20901;-62
2022/08/05 00:18:43;;;;;;;8.00;3.67;;;18.10;99.90;;;;;;7334662;32;20115;-62
2022/08/05 00:22:45;;;;;;;6.32;3.37;;;18.10;99.90;;;;;;7336499;32;20179;-62
2022/08/05 00:27:01;;;;;;;7.35;3.90;;;18.00;99.90;;;;;;7340776;32;20225;-62
2022/08/05 00:31:11;;;;;;;6.72;3.50;;;18.00;99.90;;;;;;7338634;32;20135;-61
2022/08/05 00:35:13;;;;;;;5.65;3.30;;;18.00;99.90;;;;;;7340903;32;20131;-61
2022/08/05 00:39:14;;;;;;;8.05;3.40;;;17.90;99.90;;;;;;7343077;32;20297;-61
2022/08/05 00:43:17;;;;;;;4.80;3.47;;;17.90;99.90;;;;;;7339283;32;20134;-62
2022/08/05 00:47:19;;;;;;;4.90;3.00;;;17.90;99.90;;;;;;7345386;32;20167;-62
2022/08/05 00:51:21;;;;;;;5.60;3.58;;;17.80;99.90;;;;;;7341480;32;20111;-62
2022/08/05 00:55:43;;;;;;;4.15;3.28;;;17.80;99.90;;;;;;7342424;32;20462;-62
2022/08/05 00:59:47;;;;;;;6.32;3.85;;;17.80;99.90;;;;;;7334062;32;20305;-61
2022/08/05 01:03:50;;;;;;;11.75;3.95;;;17.70;99.90;;;;;;7343015;32;20206;-61
2022/08/05 01:07:53;;;;;;;10.95;4.20;;;17.70;99.90;;;;;;7338513;32;20624;-61
2022/08/05 01:12:17;;;;;;;9.45;4.12;;;17.70;99.90;;;;;;7340696;32;20121;-61
2022/08/05 01:16:29;;;;;;;5.25;3.72;;;17.70;99.90;;;;;;7342766;32;20119;-62
2022/08/05 01:20:48;;;;;;;9.48;4.78;;;17.60;99.90;;;;;;7342702;32;20572;-62
2022/08/05 01:25:11;;;;;;;6.82;4.00;;;17.60;99.90;;;;;;7340406;32;20164;-62
2022/08/05 01:29:44;;;;;;;7.65;5.60;;;17.60;99.90;;;;;;7340227;32;20199;-62
2022/08/05 01:33:57;;;;;;;8.13;6.12;;;17.60;99.90;;;;;;7338203;32;20218;-61
2022/08/05 01:38:01;;;;;;;9.73;5.82;;;17.60;99.90;;;;;;7340542;32;20159;-62
2022/08/05 01:42:07;;;;;;;12.10;6.80;;;17.60;99.90;;;;;;7337449;32;20129;-62
2022/08/05 01:46:10;;;;;;;9.40;7.17;;;17.60;99.90;;;;;;7332947;32;20137;-62
2022/08/05 01:50:37;;;;;;;9.23;6.55;;;17.60;99.90;;;;;;7342036;32;20756;-62
2022/08/05 01:54:54;;;;;;;10.15;7.10;;;17.70;99.90;;;;;;7336298;32;20250;-62
2022/08/05 01:58:57;;;;;;;9.40;7.00;;;17.70;99.90;;;;;;7344755;32;20366;-62
2022/08/05 02:03:09;;;;;;;12.45;7.00;;;17.70;99.90;;;;;;7340929;32;20619;-62
2022/08/05 02:07:31;;;;;;;10.02;7.40;;;17.70;99.90;;;;;;7330430;32;20096;-61
2022/08/05 02:11:55;;;;;;;10.05;7.32;;;17.80;99.90;;;;;;7331397;32;20220;-61
2022/08/05 02:16:21;;;;;;;12.43;6.78;;;17.90;99.90;;;;;;7344987;32;20103;-61
2022/08/05 02:20:29;;;;;;;9.80;7.50;;;18.00;99.90;;;;;;7336518;32;20104;-61
2022/08/05 02:24:37;;;;;;;11.50;7.07;;;18.00;99.90;;;;;;7344056;32;20194;-62
2022/08/05 02:28:43;;;;;;;10.32;8.18;;;18.00;99.90;;;;;;7339299;32;20091;-63
2022/08/05 02:32:50;;;;;;;12.48;8.23;;;18.00;99.90;;;;;;7338649;32;20591;-61
2022/08/05 02:36:56;;;;;;;9.63;7.78;;;17.90;99.90;;;;;;7341036;32;20652;-61
2022/08/05 02:40:59;;;;;;;16.20;8.70;;;17.90;99.90;;;;;;7344094;32;20241;-61
2022/08/05 02:45:16;;;;;;;12.82;7.95;;;17.90;99.90;;;;;;7347965;32;20092;-61
2022/08/05 02:49:19;;;;;;;13.05;8.93;;;17.80;99.90;;;;;;7345406;32;20161;-61
2022/08/05 02:53:23;;;;;;;10.60;8.18;;;17.90;99.90;;;;;;7335790;32;20099;-61
2022/08/05 02:57:26;;;;;;;14.00;8.55;;;17.90;99.90;;;;;;7346771;32;20438;-61
2022/08/05 03:01:50;;;;;;;15.38;8.98;;;17.80;99.90;;;;;;7343166;32;20179;-61
2022/08/05 03:05:53;;;;;;;11.18;8.85;;;17.80;99.90;;;;;;7345078;32;20099;-60
2022/08/05 03:10:15;;;;;;;19.30;12.05;;;17.70;99.90;;;;;;7339762;32;20784;-60
2022/08/05 03:14:25;;;;;;;15.40;13.02;;;17.50;99.90;;;;;;7342090;32;20103;-61
2022/08/05 03:18:27;;;;;;;23.45;14.75;;;17.40;99.90;;;;;;7342132;32;20123;-60
2022/08/05 03:22:31;;;;;;;17.80;13.68;;;17.40;99.90;;;;;;7343477;32;20156;-61
2022/08/05 03:26:36;;;;;;;17.52;13.38;;;17.40;99.90;;;;;;7347680;32;20111;-61
2022/08/05 03:30:38;;;;;;;17.17;13.77;;;17.30;99.90;;;;;;7338626;32;20116;-60
2022/08/05 03:34:44;;;;;;;16.17;14.38;;;17.30;99.90;;;;;;7343147;32;20135;-62
2022/08/05 03:38:52;;;;;;;17.48;13.75;;;17.20;99.90;;;;;;7342980;32;20113;-61
2022/08/05 03:42:54;;;;;;;20.10;14.50;;;17.20;99.90;;;;;;7339151;32;20117;-61
2022/08/05 03:46:55;;;;;;;16.65;14.52;;;17.20;99.90;;;;;;7344016;32;20555;-61
2022/08/05 03:51:20;;;;;;;18.12;13.95;;;17.30;99.90;;;;;;7345736;32;20103;-61
2022/08/05 03:55:49;;;;;;;15.65;11.38;;;17.40;99.90;;;;;;7334367;32;20130;-61
2022/08/05 04:00:13;;;;;;;12.85;10.95;;;17.40;99.90;;;;;;7341815;32;20521;-60
2022/08/05 04:04:20;;;;;;;20.85;11.00;;;17.50;99.90;;;;;;7336023;32;20259;-61
2022/08/05 04:08:22;;;;;;;14.60;10.52;;;17.50;99.90;;;;;;7342750;32;20107;-61
2022/08/05 04:12:36;;;;;;;15.93;11.52;;;17.50;99.90;;;;;;7339123;32;20133;-61
2022/08/05 04:16:38;;;;;;;15.57;11.10;;;17.60;99.90;;;;;;7337410;32;20461;-62
2022/08/05 04:20:39;;;;;;;14.00;11.52;;;17.50;99.90;;;;;;7340701;32;20131;-61
2022/08/05 04:24:46;;;;;;;17.60;11.63;;;17.50;99.90;;;;;;7339287;32;20557;-60
2022/08/05 04:28:53;;;;;;;15.85;12.00;;;17.50;99.90;;;;;;7345145;32;20359;-61
2022/08/05 04:32:55;;;;;;;16.50;11.98;;;17.40;99.90;;;;;;7337989;32;20737;-61
2022/08/05 04:36:57;;;;;;;16.77;12.57;;;17.40;99.90;;;;;;7342577;32;20271;-61
2022/08/05 04:40:58;;;;;;;14.98;11.68;;;17.40;99.90;;;;;;7334810;32;20786;-61
2022/08/05 04:45:04;;;;;;;18.95;13.38;;;17.40;99.90;;;;;;7333842;32;20138;-62
2022/08/05 04:49:06;;;;;;;20.58;14.77;;;17.40;99.90;;;;;;7339829;32;20126;-64
2022/08/05 04:53:17;;;;;;;19.40;15.40;;;17.30;99.90;;;;;;7340701;32;20194;-63
2022/08/05 04:57:18;;;;;;;20.33;16.15;;;17.30;99.90;;;;;;7342081;32;20518;-62
2022/08/05 05:01:21;;;;;;;23.42;16.08;;;17.30;99.90;;;;;;7335475;32;20175;-64
2022/08/05 05:05:42;;;;;;;24.05;18.70;;;17.30;99.90;;;;;;7338824;32;20107;-64
2022/08/05 05:10:05;;;;;;;34.33;21.15;;;17.30;99.90;;;;;;7335237;32;20099;-64
2022/08/05 05:14:07;;;;;;;27.05;20.58;;;17.30;99.90;;;;;;7335941;32;20597;-64
2022/08/05 05:18:14;;;;;;;29.80;22.83;;;17.30;99.90;;;;;;7336388;32;20267;-63
2022/08/05 05:22:33;;;;;;;34.08;24.87;;;17.30;99.90;;;;;;7338045;32;20525;-64
2022/08/05 05:26:34;;;;;;;34.33;24.90;;;17.20;99.90;;;;;;7339298;32;20107;-63
2022/08/05 05:30:37;;;;;;;35.90;27.20;;;17.10;99.90;;;;;;7332106;32;20126;-63
2022/08/05 05:34:39;;;;;;;35.50;27.40;;;17.10;99.90;;;;;;7333410;32;20265;-64
2022/08/05 05:38:41;;;;;;;32.75;25.95;;;17.20;99.90;;;;;;7337177;32;20235;-62
2022/08/05 05:42:43;;;;;;;37.67;27.42;;;17.10;99.90;;;;;;7328128;32;20202;-63
2022/08/05 05:46:47;;;;;;;39.85;28.98;;;17.10;99.90;;;;;;7341130;32;20221;-64
2022/08/05 05:50:51;;;;;;;47.03;29.35;;;17.20;99.90;;;;;;7338840;32;20281;-64
2022/08/05 05:54:53;;;;;;;42.40;28.02;;;17.20;99.90;;;;;;7347764;32;20107;-64
2022/08/05 05:58:55;;;;;;;44.70;29.85;;;17.30;99.90;;;;;;7346499;32;20111;-64
2022/08/05 06:02:56;;;;;;;41.63;27.87;;;17.30;99.90;;;;;;7334195;32;20567;-64
2022/08/05 06:06:59;;;;;;;39.83;26.33;;;17.30;99.90;;;;;;7333772;32;20198;-65
2022/08/05 06:11:02;;;;;;;40.22;26.58;;;17.30;99.90;;;;;;7339434;32;20130;-62
2022/08/05 06:15:06;;;;;;;39.33;28.27;;;17.30;99.90;;;;;;7333429;32;20164;-63
2022/08/05 06:19:08;;;;;;;41.58;28.42;;;17.30;99.90;;;;;;7335053;32;20757;-64
2022/08/05 06:23:13;;;;;;;48.10;30.25;;;17.30;99.90;;;;;;7333989;32;20157;-64
2022/08/05 06:27:15;;;;;;;45.90;30.35;;;17.30;99.90;;;;;;7335834;32;20138;-63
2022/08/05 06:31:37;;;;;;;41.63;32.40;;;17.40;99.90;;;;;;7335525;32;20130;-63
2022/08/05 06:35:42;;;;;;;44.80;32.40;;;17.40;99.90;;;;;;7330638;32;20310;-62
2022/08/05 06:40:04;;;;;;;36.90;28.23;;;17.40;99.90;;;;;;7326089;32;20626;-62
2022/08/05 06:44:06;;;;;;;38.53;29.40;;;17.40;99.90;;;;;;7339063;32;20207;-62
2022/08/05 06:48:08;;;;;;;32.53;26.58;;;17.40;99.90;;;;;;7333697;32;20130;-62
2022/08/05 06:52:29;;;;;;;29.55;21.48;;;17.30;99.90;;;;;;7330783;32;20191;-62
2022/08/05 06:56:39;;;;;;;26.37;20.98;;;17.20;99.90;;;;;;7334959;32;20748;-62
2022/08/05 07:00:58;;;;;;;27.92;20.77;;;17.10;99.90;;;;;;7330400;32;20123;-62
2022/08/05 07:05:00;;;;;;;20.12;17.70;;;16.90;99.90;;;;;;7332316;32;20240;-63
2022/08/05 07:09:03;;;;;;;25.77;18.30;;;16.90;99.90;;;;;;7331017;32;20639;-62
2022/08/05 07:17:45;;;;;;;30.37;19.92;;;16.80;99.90;;;;;;7324980;32;20231;-63
2022/08/05 07:22:07;;;;;;;28.98;20.75;;;16.80;99.90;;;;;;7336580;32;20127;-62
2022/08/05 07:26:09;;;;;;;28.50;20.58;;;16.80;99.90;;;;;;7337489;32;20549;-63
2022/08/05 07:30:14;;;;;;;29.85;21.35;;;16.80;99.90;;;;;;7336281;32;20115;-64
2022/08/05 07:34:31;;;;;;;31.42;20.92;;;16.70;99.90;;;;;;7340187;32;20274;-63
2022/08/05 07:38:34;;;;;;;33.50;22.48;;;16.70;99.90;;;;;;7339585;32;20199;-65
2022/08/05 07:42:44;;;;;;;27.13;19.98;;;16.70;99.90;;;;;;7334118;32;20111;-63
2022/08/05 07:46:48;;;;;;;26.37;19.05;;;16.70;99.90;;;;;;7333429;32;20190;-62
2022/08/05 07:50:51;;;;;;;24.05;18.83;;;16.80;99.90;;;;;;7332580;32;20855;-62
2022/08/05 07:54:52;;;;;;;20.15;15.55;;;16.70;99.90;;;;;;7334346;32;20273;-62
2022/08/05 07:58:54;;;;;;;18.40;14.40;;;16.70;99.90;;;;;;7335714;32;20340;-63
2022/08/05 08:03:00;;;;;;;21.08;12.18;;;16.80;99.90;;;;;;7337872;32;20166;-65
2022/08/05 08:07:17;;;;;;;15.68;10.77;;;16.80;99.90;;;;;;7335008;32;20174;-64
2022/08/05 08:11:23;;;;;;;19.12;11.30;;;16.80;99.90;;;;;;7328565;32;20230;-64
2022/08/05 08:15:45;;;;;;;20.08;12.10;;;16.70;99.90;;;;;;7331557;32;20132;-65
2022/08/05 08:20:07;;;;;;;15.15;11.23;;;16.70;99.90;;;;;;7330855;32;20187;-64
2022/08/05 08:24:30;;;;;;;14.38;10.63;;;16.70;99.90;;;;;;7335575;32;20131;-65
2022/08/05 08:28:51;;;;;;;14.57;9.82;;;16.70;99.90;;;;;;7333103;32;20111;-63
2022/08/05 08:33:10;;;;;;;11.88;6.28;;;16.60;99.90;;;;;;7334483;32;20103;-65
2022/08/05 08:37:18;;;;;;;9.80;5.12;;;16.50;99.90;;;;;;7334398;32;20731;-64
2022/08/05 08:41:22;;;;;;;11.65;5.95;;;16.40;99.90;;;;;;7331740;32;20142;-66
2022/08/05 08:45:52;;;;;;;12.98;6.60;;;16.30;99.90;;;;;;7328546;32;20371;-65
2022/08/05 08:49:56;;;;;;;15.57;6.80;;;16.40;99.90;;;;;;7325472;32;20170;-66
2022/08/05 08:54:18;;;;;;;14.80;6.80;;;16.40;99.90;;;;;;7327306;32;21222;-64
2022/08/05 08:58:21;;;;;;;13.15;6.75;;;16.50;99.90;;;;;;7325728;32;20255;-66
2022/08/05 09:02:44;;;;;;;8.43;6.87;;;16.50;99.90;;;;;;7328311;32;20212;-64
2022/08/05 09:06:48;;;;;;;9.60;7.10;;;16.70;99.90;;;;;;7330933;32;20107;-65
2022/08/05 09:10:51;;;;;;;14.32;7.55;;;16.60;99.90;;;;;;7324435;32;20273;-65
2022/08/05 09:14:53;;;;;;;12.90;7.90;;;16.70;99.90;;;;;;7333049;32;20104;-67
2022/08/05 09:19:07;;;;;;;11.20;7.57;;;16.80;99.90;;;;;;7329338;32;20107;-65
2022/08/05 09:23:19;;;;;;;9.70;6.90;;;16.80;99.90;;;;;;7334422;32;20115;-65
2022/08/05 09:27:43;;;;;;;11.65;6.70;;;16.90;99.90;;;;;;7325754;32;20135;-66
2022/08/05 09:32:09;;;;;;;11.57;6.80;;;17.10;99.90;;;;;;7332915;32;20664;-65
2022/08/05 09:36:57;;;;;;;13.80;7.90;;;17.00;99.90;;;;;;7332956;32;20235;-67
2022/08/05 09:41:10;;;;;;;11.02;7.82;;;17.10;99.90;;;;;;7327497;32;20843;-65
2022/08/05 09:45:17;;;;;;;12.85;8.10;;;17.10;99.90;;;;;;7339754;32;20107;-66
2022/08/05 09:49:50;;;;;;;12.68;8.15;;;17.10;99.90;;;;;;7331881;32;20208;-65
2022/08/05 09:54:06;;;;;;;11.43;7.12;;;17.20;99.90;;;;;;7336823;32;20168;-65
2022/08/05 09:58:13;;;;;;;10.95;6.50;;;17.10;99.90;;;;;;7332087;32;20131;-65
2022/08/05 10:02:33;;;;;;;10.95;6.68;;;17.30;99.90;;;;;;7334098;32;20792;-65
2022/08/05 10:06:35;;;;;;;10.30;5.87;;;17.40;99.90;;;;;;7332232;32;20465;-64
2022/08/05 10:10:45;;;;;;;10.15;6.07;;;17.50;99.90;;;;;;7329845;32;20178;-65
2022/08/05 10:14:48;;;;;;;12.43;5.22;;;17.70;99.90;;;;;;7336187;32;20203;-66
2022/08/05 10:18:55;;;;;;;9.23;5.80;;;17.90;99.90;;;;;;7330340;32;20187;-64
2022/08/05 10:22:59;;;;;;;10.30;5.87;;;18.30;99.90;;;;;;7341320;32;20248;-65
2022/08/05 10:27:01;;;;;;;8.55;4.20;;;18.70;99.90;;;;;;7334129;32;20269;-66
2022/08/05 10:31:03;;;;;;;6.53;3.78;;;19.00;99.90;;;;;;7330512;32;20248;-67
2022/08/05 10:35:25;;;;;;;8.60;4.22;;;19.20;99.90;;;;;;7336760;32;20190;-66
2022/08/05 10:39:44;;;;;;;8.88;3.47;;;19.40;99.90;;;;;;7336082;32;20941;-65
2022/08/05 10:44:11;;;;;;;6.50;3.00;;;19.50;99.90;;;;;;7331507;32;20186;-64
2022/08/05 10:48:43;;;;;;;6.45;3.22;;;19.70;99.90;;;;;;7329521;32;20228;-63
2022/08/05 10:52:59;;;;;;;7.35;2.55;;;19.90;99.90;;;;;;7327156;32;20135;-66
2022/08/05 10:57:02;;;;;;;7.80;2.70;;;20.00;99.90;;;;;;7332188;32;20205;-66
2022/08/05 11:01:05;;;;;;;5.55;2.40;;;20.10;99.90;;;;;;7328919;32;20133;-62
2022/08/05 11:05:09;;;;;;;10.60;2.15;;;20.20;99.90;;;;;;7332944;32;20095;-63
2022/08/05 11:09:14;;;;;;;3.33;1.70;;;20.30;99.90;;;;;;7327761;32;20281;-64
2022/08/05 11:13:51;;;;;;;4.65;2.20;;;20.40;99.90;;;;;;7323372;32;20581;-63
2022/08/05 11:18:06;;;;;;;6.78;2.22;;;20.90;99.90;;;;;;7300147;32;20617;-63
2022/08/05 11:22:51;;;;;;;5.40;2.78;;;20.90;99.90;;;;;;7330745;32;20375;-63
2022/08/05 11:27:30;;;;;;;3.28;1.92;;;20.50;99.90;;;;;;7319378;32;20146;-63
2022/08/05 11:32:27;;;;;;;4.85;2.15;;;20.90;99.90;;;;;;7328588;32;20559;-58
2022/08/05 11:36:45;;;;;;;5.22;2.53;;;21.20;99.90;;;;;;7329066;32;20268;-63
2022/08/05 11:41:01;;;;;;;6.62;2.60;;;21.10;99.90;;;;;;7327332;32;20291;-63
2022/08/05 11:45:22;;;;;;;5.25;2.03;;;21.40;99.90;;;;;;7325378;32;20173;-60
2022/08/05 11:49:44;;;;;;;5.40;1.87;;;21.30;99.90;;;;;;7330989;32;20207;-59
2022/08/05 11:53:53;;;;;;;6.15;1.90;;;21.20;99.90;;;;;;7332132;32;20115;-59
2022/08/05 11:57:56;;;;;;;7.40;2.42;;;20.80;99.90;;;;;;7326052;32;20247;-61
2022/08/05 12:02:12;;;;;;;6.57;2.15;;;20.90;99.90;;;;;;7329584;32;21007;-62
2022/08/05 12:06:34;;;;;;;4.47;1.87;;;21.60;99.90;;;;;;7332346;32;20218;-60
2022/08/05 12:10:37;;;;;;;4.00;1.58;;;22.20;99.90;;;;;;7330508;32;20425;-59
2022/08/05 12:14:46;;;;;;;3.35;1.45;;;22.40;99.90;;;;;;7332482;32;20129;-59
2022/08/05 12:18:49;;;;;;;9.48;2.47;;;22.40;99.90;;;;;;7326994;32;20309;-61
2022/08/05 12:23:08;;;;;;;4.47;1.87;;;22.50;99.90;;;;;;7333924;32;20115;-60
2022/08/05 12:27:18;;;;;;;5.75;2.30;;;22.60;99.90;;;;;;7334201;32;20216;-60
2022/08/05 12:31:34;;;;;;;4.68;2.65;;;22.30;99.90;;;;;;7327330;32;20206;-62
2022/08/05 12:35:50;;;;;;;6.27;2.20;;;22.40;99.90;;;;;;7331748;32;20119;-62
2022/08/05 12:39:56;;;;;;;4.43;2.50;;;22.60;99.90;;;;;;7332705;32;20289;-62
2022/08/05 12:44:10;;;;;;;6.00;2.42;;;22.40;99.90;;;;;;7325743;32;20889;-65
2022/08/05 12:48:15;;;;;;;4.57;2.12;;;22.60;99.90;;;;;;7323122;32;20118;-62
2022/08/05 12:52:28;;;;;;;4.25;2.17;;;23.00;99.90;;;;;;7331544;32;20103;-65
2022/08/05 12:56:42;;;;;;;4.45;2.17;;;23.00;99.90;;;;;;7326071;32;20281;-63
2022/08/05 13:00:46;;;;;;;4.25;2.40;;;22.90;99.90;;;;;;7325466;32;20867;-62
2022/08/05 13:05:08;;;;;;;4.90;2.87;;;22.80;99.90;;;;;;7330622;32;20107;-62
2022/08/05 13:09:15;;;;;;;7.43;2.60;;;22.80;99.90;;;;;;7326105;32;20127;-58
2022/08/05 13:13:29;;;;;;;4.45;2.50;;;22.30;99.90;;;;;;7329401;32;21030;-64
2022/08/05 13:17:54;;;;;;;5.10;2.87;;;21.90;99.90;;;;;;7327023;32;20577;-63
2022/08/05 13:22:00;;;;;;;5.70;2.97;;;21.60;99.90;;;;;;7327181;32;20133;-64
2022/08/05 13:26:04;;;;;;;4.90;3.15;;;21.50;99.90;;;;;;7333638;32;20481;-65
2022/08/05 13:30:10;;;;;;;5.40;2.95;;;21.20;99.90;;;;;;7324426;32;20817;-64
2022/08/05 13:34:31;;;;;;;9.48;3.20;;;21.10;99.90;;;;;;7334074;32;20887;-65
2022/08/05 13:38:34;;;;;;;7.85;2.65;;;20.90;99.90;;;;;;7333886;32;20123;-63
2022/08/05 13:42:39;;;;;;;10.23;4.07;;;20.80;99.90;;;;;;7329074;32;20226;-66
2022/08/05 13:46:41;;;;;;;6.43;3.65;;;20.80;99.90;;;;;;7301450;32;20201;-64
2022/08/05 13:51:08;;;;;;;7.00;2.90;;;20.70;99.90;;;;;;7331194;32;20099;-66
2022/08/05 13:55:10;;;;;;;4.78;2.75;;;20.50;99.90;;;;;;7335174;32;20115;-64
2022/08/05 13:59:31;;;;;;;4.40;2.62;;;20.50;99.90;;;;;;7329137;32;20111;-63
2022/08/05 14:03:33;;;;;;;5.00;2.53;;;20.60;99.90;;;;;;7329957;32;20707;-64
2022/08/05 14:07:38;;;;;;;4.00;1.92;;;20.80;99.90;;;;;;7335344;32;20396;-65
2022/08/05 14:12:00;;;;;;;4.20;1.77;;;21.00;99.90;;;;;;7334174;32;20141;-64
2022/08/05 14:16:19;;;;;;;5.32;1.62;;;21.10;99.90;;;;;;7335759;32;20206;-64
2022/08/05 14:20:21;;;;;;;4.75;1.40;;;21.10;99.90;;;;;;7343259;32;20185;-65
2022/08/05 14:24:28;;;;;;;;;;;21.30;99.90;;;;;;7337324;32;20123;-64
2022/08/05 14:28:31;;;;;;;2.50;1.33;;;21.30;99.90;;;;;;7338569;32;20431;-64
2022/08/05 14:32:32;;;;;;;5.53;1.73;;;21.60;99.90;;;;;;7336733;32;20597;-64
2022/08/05 14:36:39;;;;;;;6.03;1.70;;;21.80;99.90;;;;;;7335515;32;20111;-66
2022/08/05 14:40:41;;;;;;;6.97;1.85;;;22.00;99.90;;;;;;7334515;32;20563;-64
2022/08/05 14:44:44;;;;;;;4.62;1.20;;;21.90;99.90;;;;;;7337688;32;20143;-66
2022/08/05 14:48:46;;;;;;;4.57;1.15;;;21.90;99.90;;;;;;7336331;32;20241;-65
2022/08/05 14:52:51;;;;;;;3.35;0.95;;;22.20;99.90;;;;;;7335863;32;20238;-67
2022/08/05 14:56:59;;;;;;;3.78;1.20;;;22.10;99.90;;;;;;7338958;32;20104;-65
2022/08/05 15:01:06;;;;;;;5.33;0.87;;;21.90;99.90;;;;;;7329265;32;20107;-65
2022/08/05 15:05:16;;;;;;;2.65;0.77;;;21.90;99.90;;;;;;7330791;32;20112;-64
2022/08/05 15:09:21;;;;;;;2.15;0.80;;;21.50;99.90;;;;;;7335837;32;20139;-65
2022/08/05 15:13:43;;;;;;;3.70;0.73;;;21.40;99.90;;;;;;7338802;32;20107;-65
2022/08/05 15:17:46;;;;;;;1.85;0.70;;;21.40;99.90;;;;;;7331305;32;20108;-64
2022/08/05 15:21:53;;;;;;;3.17;0.50;;;21.60;99.90;;;;;;7333321;32;20125;-64
2022/08/05 15:26:00;;;;;;;;;;;21.80;99.90;;;;;;7338201;32;20139;-66
2022/08/05 15:30:04;;;;;;;2.92;0.50;;;21.90;99.90;;;;;;7339651;32;20565;-64
2022/08/05 15:34:06;;;;;;;1.77;0.50;;;21.80;99.90;;;;;;7329680;32;20823;-66
2022/08/05 15:38:28;;;;;;;3.15;0.50;;;21.90;99.90;;;;;;7341402;32;20122;-65
2022/08/05 15:42:37;;;;;;;1.90;0.50;;;21.80;99.90;;;;;;7335149;32;20149;-64
2022/08/05 15:47:00;;;;;;;2.30;0.50;;;21.80;99.90;;;;;;7335579;32;20104;-64
2022/08/05 15:51:02;;;;;;;3.12;0.60;;;21.90;99.90;;;;;;7335593;32;20393;-66
2022/08/05 15:55:09;;;;;;;2.78;0.40;;;21.90;99.90;;;;;;7331775;32;20482;-64
2022/08/05 15:59:17;;;;;;;1.12;0.40;;;21.70;99.90;;;;;;7327178;32;20731;-64
2022/08/05 16:03:23;;;;;;;1.15;0.20;;;21.70;99.90;;;;;;7332016;32;20138;-63
2022/08/05 16:07:24;;;;;;;1.73;0.40;;;21.50;99.90;;;;;;7327515;32;20429;-64
2022/08/05 16:11:30;;;;;;;2.12;0.40;;;21.30;99.90;;;;;;7332717;32;20131;-63
2022/08/05 16:15:52;;;;;;;0.85;0.20;;;21.30;99.90;;;;;;7327527;32;20232;-66
2022/08/05 16:19:54;;;;;;;2.85;0.30;;;21.20;99.90;;;;;;7332338;32;20403;-64
2022/08/05 16:24:11;;;;;;;;;;;21.20;99.90;;;;;;7328700;32;20633;-64
2022/08/05 16:28:35;;;;;;;2.92;0.30;;;21.20;99.90;;;;;;7337547;32;20487;-65
2022/08/05 16:32:42;;;;;;;4.87;0.60;;;21.20;99.90;;;;;;7323924;32;20200;-66
2022/08/05 16:36:45;;;;;;;2.97;0.50;;;21.10;99.90;;;;;;7327233;32;20226;-59
2022/08/05 16:40:47;;;;;;;1.15;0.30;;;21.40;99.90;;;;;;7333085;32;20108;-57
2022/08/05 16:45:01;;;;;;;0.50;0.30;;;21.40;99.90;;;;;;7328263;32;20162;-57
2022/08/05 16:49:22;;;;;;;3.53;0.68;;;21.40;99.90;;;;;;7334275;32;20267;-57
2022/08/05 16:53:24;;;;;;;2.80;0.50;;;21.40;99.90;;;;;;7333572;32;20619;-57
2022/08/05 16:57:46;;;;;;;2.90;0.45;;;21.40;99.90;;;;;;7325693;32;20103;-57
2022/08/05 17:02:01;;;;;;;2.85;0.40;;;21.40;99.90;;;;;;7333452;32;20135;-57
2022/08/05 17:06:03;;;;;;;1.10;0.40;;;21.50;99.90;;;;;;7333235;32;20179;-57
2022/08/05 17:10:05;;;;;;;4.65;0.47;;;21.40;99.90;;;;;;7331714;32;20362;-57
2022/08/05 17:14:07;;;;;;;2.42;0.45;;;21.50;99.90;;;;;;7330229;32;20259;-64
2022/08/05 17:18:14;;;;;;;2.40;0.40;;;21.60;99.90;;;;;;7326977;32;20152;-66
2022/08/05 17:22:16;;;;;;;2.83;0.65;;;21.60;99.90;;;;;;7326921;32;20480;-65
2022/08/05 17:26:26;;;;;;;2.87;0.55;;;21.40;99.90;;;;;;7327570;32;20898;-65
2022/08/05 17:30:29;;;;;;;2.22;0.82;;;21.10;99.90;;;;;;7335704;32;20852;-65
2022/08/05 17:34:30;;;;;;;3.15;0.90;;;21.00;99.90;;;;;;7332039;32;20139;-66
2022/08/05 17:38:35;;;;;;;1.77;0.50;;;21.00;99.90;;;;;;7327889;32;20219;-66
2022/08/05 17:42:37;;;;;;;2.58;0.60;;;20.90;99.90;;;;;;7329969;32;20123;-66
2022/08/05 17:46:43;;;;;;;1.27;0.47;;;20.70;99.90;;;;;;7327849;32;20351;-65
2022/08/05 17:50:47;;;;;;;1.87;0.32;;;20.60;99.90;;;;;;7336705;32;20521;-65
2022/08/05 17:54:50;;;;;;;1.92;0.50;;;20.50;99.90;;;;;;7330129;32;20292;-65
2022/08/05 17:58:52;;;;;;;2.85;0.40;;;20.50;99.90;;;;;;7335512;32;20182;-66
2022/08/05 18:02:53;;;;;;;1.77;0.40;;;20.40;99.90;;;;;;7334473;32;20131;-66
2022/08/05 18:06:56;;;;;;;3.47;0.50;;;20.30;99.90;;;;;;7338891;32;20119;-65
2022/08/05 18:11:02;;;;;;;5.05;0.45;;;20.20;99.90;;;;;;7330475;32;20264;-66
2022/08/05 18:15:05;;;;;;;3.67;0.50;;;20.20;99.90;;;;;;7337994;32;20253;-64
2022/08/05 18:19:09;;;;;;;2.72;0.40;;;20.10;99.90;;;;;;7338816;32;20122;-65
2022/08/05 18:23:11;;;;;;;2.05;0.50;;;19.90;99.90;;;;;;7328079;32;20178;-65
2022/08/05 18:27:13;;;;;;;5.05;0.60;;;19.70;99.90;;;;;;7334624;32;20135;-65
2022/08/05 18:31:20;;;;;;;1.33;0.30;;;19.60;99.90;;;;;;7333755;32;20527;-65
2022/08/05 18:35:22;;;;;;;3.10;0.40;;;19.40;99.90;;;;;;7337471;32;20359;-65
2022/08/05 18:39:44;;;;;;;4.47;0.73;;;19.30;99.90;;;;;;7332067;32;21303;-65
2022/08/05 18:44:05;;;;;;;4.12;0.40;;;19.00;99.90;;;;;;7333794;32;20133;-66
2022/08/05 18:48:09;;;;;;;2.83;0.47;;;18.90;99.90;;;;;;7336345;32;20120;-67
2022/08/05 18:52:40;;;;;;;1.02;0.40;;;18.80;99.90;;;;;;7337327;32;20135;-67
2022/08/05 18:56:52;;;;;;;2.35;0.47;;;18.60;99.90;;;;;;7336550;32;20168;-68
2022/08/05 19:00:54;;;;;;;1.30;0.60;;;18.40;99.90;;;;;;7333076;32;20231;-68
2022/08/05 19:04:57;;;;;;;1.95;0.60;;;18.20;99.90;;;;;;7337581;32;20131;-67
2022/08/05 19:09:19;;;;;;;4.18;0.73;;;18.00;99.90;;;;;;7341078;32;20110;-67
2022/08/05 19:13:21;;;;;;;3.15;0.68;;;17.80;99.90;;;;;;7338613;32;20568;-68
2022/08/05 19:17:23;;;;;;;3.50;0.68;;;17.70;99.90;;;;;;7344777;32;20324;-69
2022/08/05 19:21:34;;;;;;;2.37;0.70;;;17.60;99.90;;;;;;7336533;32;20126;-68
2022/08/05 19:25:36;;;;;;;2.05;0.50;;;17.40;99.90;;;;;;7338893;32;20123;-63
2022/08/05 19:29:42;;;;;;;2.53;0.80;;;17.30;99.90;;;;;;7344523;32;20133;-66
2022/08/05 19:33:44;;;;;;;3.00;1.00;;;17.10;99.90;;;;;;7333670;32;20112;-66
2022/08/05 19:37:56;;;;;;;3.37;1.20;;;16.90;99.90;;;;;;7339764;32;20285;-64
2022/08/05 19:42:08;;;;;;;9.10;1.58;;;16.70;99.90;;;;;;7341292;32;20335;-66
2022/08/05 19:46:15;;;;;;;5.80;1.10;;;16.40;99.90;;;;;;7339523;32;20139;-65
2022/08/05 19:50:31;;;;;;;3.87;0.88;;;16.20;99.90;;;;;;7338424;32;20421;-64
2022/08/05 19:54:34;;;;;;;5.80;0.90;;;16.00;99.90;;;;;;7337084;32;20127;-66
2022/08/05 19:58:37;;;;;;;4.53;0.75;;;15.90;99.90;;;;;;7343024;32;20238;-64
2022/08/05 20:02:56;;;;;;;5.82;0.90;;;15.70;99.90;;;;;;7341995;32;20107;-66
2022/08/05 20:06:59;;;;;;;4.90;0.90;;;15.50;99.90;;;;;;7344012;32;20562;-68
2022/08/05 20:11:02;;;;;;;1.60;0.90;;;15.30;99.90;;;;;;7340021;32;20203;-65
2022/08/05 20:15:06;;;;;;;6.47;1.00;;;15.20;99.90;;;;;;7337754;32;20120;-65
2022/08/05 20:19:09;;;;;;;4.05;0.80;;;15.10;99.90;;;;;;7342944;32;21598;-64
2022/08/05 20:23:12;;;;;;;2.92;0.70;;;15.10;99.90;;;;;;7340287;32;20103;-66
2022/08/05 20:27:13;;;;;;;2.45;0.90;;;15.00;99.90;;;;;;7342331;32;20218;-63
2022/08/05 20:31:25;;;;;;;3.28;1.00;;;15.10;99.90;;;;;;7335091;32;20692;-64
2022/08/05 20:35:38;;;;;;;4.20;1.10;;;15.00;99.90;;;;;;7336905;32;20209;-67
2022/08/05 20:39:46;;;;;;;4.85;0.93;;;15.00;99.90;;;;;;7332480;32;20648;-65
2022/08/05 20:43:52;;;;;;;2.75;0.60;;;14.90;99.90;;;;;;7330543;32;20312;-62
2022/08/05 20:48:02;;;;;;;4.15;0.80;;;14.70;99.90;;;;;;7324868;32;20218;-63
2022/08/05 20:52:04;;;;;;;7.40;1.10;;;14.70;99.90;;;;;;7319576;32;20203;-64
2022/08/05 20:56:07;;;;;;;4.20;0.80;;;14.60;99.90;;;;;;7331591;32;20115;-63
2022/08/05 21:00:13;;;;;;;3.58;0.85;;;14.50;99.90;;;;;;7329262;32;20115;-64
2022/08/05 21:04:35;;;;;;;4.12;1.02;;;14.40;99.90;;;;;;7325823;32;20202;-63
2022/08/05 21:08:39;;;;;;;3.90;0.73;;;14.30;99.90;;;;;;7318871;32;20342;-65
2022/08/05 21:12:44;;;;;;;6.57;0.88;;;14.20;99.90;;;;;;7331565;32;20694;-67
2022/08/05 21:17:06;;;;;;;1.12;0.70;;;14.10;99.90;;;;;;7326511;32;20211;-66
2022/08/05 21:21:08;;;;;;;4.70;0.90;;;13.90;99.90;;;;;;7330268;32;20261;-66
2022/08/05 21:25:11;;;;;;;2.62;0.77;;;13.80;99.90;;;;;;7336733;32;20502;-67
2022/08/05 21:29:12;;;;;;;5.78;1.10;;;13.90;99.90;;;;;;7338247;32;20597;-65
2022/08/05 21:33:17;;;;;;;3.80;1.10;;;13.60;99.90;;;;;;7341009;32;20519;-66